createdAt,value
2023-05-25T00:06:58.790Z,99.90
2023-05-25T00:12:42.873Z,99.90
2023-05-25T00:15:14.718Z,99.90
2023-05-25T00:17:54.853Z,99.90
2023-05-25T00:20:41.044Z,99.90
2023-05-25T00:23:09.864Z,99.90
2023-05-25T00:25:43.082Z,99.90
2023-05-25T00:28:14.313Z,99.90
2023-05-25T00:30:53.541Z,99.90
2023-05-25T00:33:28.015Z,99.90
2023-05-25T00:35:57.677Z,99.90
2023-05-25T00:38:39.584Z,99.90
2023-05-25T00:41:24.323Z,99.90
2023-05-25T00:43:54.659Z,99.90
2023-05-25T00:46:27.631Z,99.90
2023-05-25T00:48:56.553Z,99.90
2023-05-25T00:51:25.823Z,99.90
2023-05-25T00:54:06.608Z,99.90
2023-05-25T01:08:02.302Z,99.90
2023-05-25T01:13:29.672Z,99.90
2023-05-25T01:16:16.303Z,99.90
2023-05-25T01:18:44.785Z,99.90
2023-05-25T01:22:02.191Z,99.90
2023-05-25T01:24:45.042Z,99.90
2023-05-25T01:31:05.420Z,99.90
2023-05-25T01:34:07.927Z,99.90
2023-05-25T01:36:37.384Z,99.90
2023-05-25T01:39:16.704Z,99.90
2023-05-25T01:41:45.332Z,99.90
2023-05-25T01:44:17.266Z,99.90
2023-05-25T01:46:49.560Z,99.90
2023-05-25T01:50:00.582Z,99.90
2023-05-25T01:52:36.088Z,99.90
2023-05-25T02:02:47.718Z,99.90
2023-05-25T02:05:16.509Z,99.90
2023-05-25T02:13:19.034Z,99.90
2023-05-25T02:15:48.649Z,99.90
2023-05-25T02:18:18.301Z,99.90
2023-05-25T02:20:52.192Z,99.90
2023-05-25T02:23:25.367Z,99.90
2023-05-25T02:26:03.323Z,99.90
2023-05-25T02:28:33.816Z,99.90
2023-05-25T02:31:20.742Z,99.90
2023-05-25T02:33:59.794Z,99.90
2023-05-25T02:36:46.215Z,99.90
2023-05-25T02:39:15.983Z,99.90
2023-05-25T02:41:50.813Z,99.90
2023-05-25T02:44:20.924Z,99.90
2023-05-25T02:46:50.340Z,99.90
2023-05-25T02:52:11.482Z,99.90
2023-05-25T03:00:51.028Z,99.90
2023-05-25T03:03:43.685Z,99.90
2023-05-25T03:06:16.321Z,99.90
2023-05-25T03:08:49.401Z,99.90
2023-05-25T03:11:34.799Z,99.90
2023-05-25T03:14:06.523Z,99.90
2023-05-25T03:16:53.975Z,99.90
2023-05-25T03:19:42.893Z,99.90
2023-05-25T03:22:22.241Z,99.90
2023-05-25T03:24:50.750Z,99.90
2023-05-25T03:27:22.083Z,99.90
2023-05-25T03:30:23.525Z,99.90
2023-05-25T03:33:00.618Z,99.90
2023-05-25T03:35:36.133Z,99.90
2023-05-25T03:38:24.996Z,99.90
2023-05-25T03:41:05.129Z,99.90
2023-05-25T03:43:39.415Z,99.90
2023-05-25T03:46:13.557Z,99.90
2023-05-25T03:48:49.453Z,99.90
2023-05-25T03:51:21.067Z,99.90
2023-05-25T03:53:56.984Z,99.90
2023-05-25T03:56:26.702Z,99.90
2023-05-25T03:58:58.126Z,99.90
2023-05-25T04:01:33.282Z,99.90
2023-05-25T04:04:11.729Z,99.90
2023-05-25T04:06:42.493Z,99.90
2023-05-25T04:09:11.656Z,99.90
2023-05-25T04:19:22.408Z,99.90
2023-05-25T04:21:59.932Z,99.90
2023-05-25T04:24:35.480Z,99.90
2023-05-25T04:30:45.953Z,99.90
2023-05-25T04:33:41.379Z,99.90
2023-05-25T04:36:19.648Z,99.90
2023-05-25T04:38:55.651Z,99.90
2023-05-25T04:41:30.326Z,99.90
2023-05-25T04:47:12.768Z,99.90
2023-05-25T04:49:44.670Z,99.90
2023-05-25T04:52:14.728Z,99.90
2023-05-25T04:58:24.250Z,99.90
2023-05-25T05:00:56.821Z,99.90
2023-05-25T05:03:31.073Z,99.90
2023-05-25T05:05:59.721Z,99.90
2023-05-25T05:08:35.022Z,99.90
2023-05-25T05:11:10.248Z,99.90
2023-05-25T05:16:37.121Z,99.90
2023-05-25T05:19:06.451Z,99.90
2023-05-25T05:21:35.230Z,99.90
2023-05-25T05:27:40.959Z,99.90
2023-05-25T05:30:23.801Z,99.90
2023-05-25T05:32:53.441Z,99.90
2023-05-25T05:35:24.952Z,99.90
2023-05-25T05:38:03.267Z,99.90
2023-05-25T05:48:55.441Z,99.90
2023-05-25T05:55:48.759Z,99.90
2023-05-25T05:58:19.950Z,99.90
2023-05-25T06:04:05.949Z,99.90
2023-05-25T06:06:35.696Z,99.90
2023-05-25T06:09:19.793Z,99.90
2023-05-25T06:12:17.361Z,99.90
2023-05-25T06:15:00.831Z,99.90
2023-05-25T06:18:02.455Z,99.90
2023-05-25T06:25:10.674Z,99.90
2023-05-25T06:30:37.566Z,99.90
2023-05-25T06:33:15.160Z,99.90
2023-05-25T06:45:20.860Z,99.90
2023-05-25T06:47:50.288Z,99.90
2023-05-25T06:50:21.690Z,99.90
2023-05-25T06:52:52.668Z,99.90
2023-05-25T07:00:30.559Z,99.90
2023-05-25T07:03:34.480Z,99.90
2023-05-25T07:06:20.472Z,99.90
2023-05-25T07:09:41.885Z,99.90
2023-05-25T07:12:29.592Z,99.90
2023-05-25T07:14:58.762Z,99.90
2023-05-25T07:22:38.154Z,99.90
2023-05-25T07:25:07.603Z,99.90
2023-05-25T07:34:55.313Z,99.90
2023-05-25T07:37:24.336Z,99.90
2023-05-25T07:39:54.108Z,99.90
2023-05-25T07:42:23.187Z,99.90
2023-05-25T07:45:11.488Z,99.90
2023-05-25T07:47:42.049Z,99.90
2023-05-25T07:50:18.942Z,99.90
2023-05-25T07:56:20.777Z,99.90
2023-05-25T07:59:07.742Z,99.90
2023-05-25T08:01:39.490Z,99.90
2023-05-25T08:04:37.369Z,99.90
2023-05-25T08:07:11.414Z,99.90
2023-05-25T08:09:53.195Z,99.90
2023-05-25T08:15:28.775Z,99.90
2023-05-25T08:17:57.369Z,99.90
2023-05-25T08:20:40.406Z,99.90
2023-05-25T08:23:11.628Z,99.90
2023-05-25T08:25:45.542Z,99.90
2023-05-25T08:28:14.318Z,99.90
2023-05-25T08:30:49.690Z,99.90
2023-05-25T08:33:18.456Z,99.90
2023-05-25T08:36:22.544Z,99.90
2023-05-25T08:38:52.855Z,99.90
2023-05-25T08:41:51.858Z,99.90
2023-05-25T08:44:25.717Z,99.90
2023-05-25T08:47:23.558Z,99.90
2023-05-25T08:49:52.962Z,99.90
2023-05-25T08:52:28.696Z,99.90
2023-05-25T08:54:58.044Z,99.90
2023-05-25T08:57:54.483Z,99.90
2023-05-25T09:00:43.119Z,99.90
2023-05-25T09:03:27.526Z,99.90
2023-05-25T09:10:57.616Z,99.90
2023-05-25T09:13:36.348Z,99.90
2023-05-25T09:16:26.931Z,99.90
2023-05-25T09:19:06.860Z,99.90
2023-05-25T09:21:40.146Z,99.90
2023-05-25T09:24:09.917Z,99.90
2023-05-25T09:26:46.375Z,99.90
2023-05-25T09:29:26.473Z,99.90
2023-05-25T09:35:23.815Z,99.90
2023-05-25T09:37:56.537Z,99.90
2023-05-25T09:40:51.163Z,99.90
2023-05-25T09:43:40.140Z,99.90
2023-05-25T09:46:12.639Z,99.90
2023-05-25T09:48:50.550Z,99.90
2023-05-25T09:51:34.517Z,99.90
2023-05-25T09:54:31.097Z,99.90
2023-05-25T09:57:17.171Z,99.90
2023-05-25T09:59:46.324Z,99.90
2023-05-25T10:02:16.113Z,99.90
2023-05-25T10:05:26.368Z,99.90
2023-05-25T10:11:48.383Z,99.90
2023-05-25T10:14:27.184Z,99.90
2023-05-25T10:17:11.265Z,99.90
2023-05-25T10:20:29.718Z,99.90
2023-05-25T10:23:18.978Z,99.90
2023-05-25T10:26:22.910Z,99.90
2023-05-25T10:28:56.494Z,99.90
2023-05-25T10:31:28.677Z,99.90
2023-05-25T10:34:02.331Z,99.90
2023-05-25T10:36:31.482Z,99.90
2023-05-25T10:39:00.967Z,99.90
2023-05-25T10:41:29.995Z,99.90
2023-05-25T10:44:22.252Z,99.90
2023-05-25T10:46:54.540Z,99.90
2023-05-25T10:49:33.931Z,99.90
2023-05-25T10:52:04.328Z,99.90
2023-05-25T10:54:39.811Z,99.90
2023-05-25T10:57:24.418Z,99.90
2023-05-25T11:03:21.124Z,99.90
2023-05-25T11:05:54.248Z,99.90
2023-05-25T11:09:51.832Z,99.90
2023-05-25T11:12:30.221Z,99.90
2023-05-25T11:25:47.865Z,99.90
2023-05-25T11:28:21.437Z,99.90
2023-05-25T11:31:02.568Z,99.90
2023-05-25T11:33:33.137Z,99.90
2023-05-25T11:36:04.239Z,99.90
2023-05-25T11:38:53.230Z,99.90
2023-05-25T11:41:36.737Z,99.90
2023-05-25T11:44:34.025Z,99.90
2023-05-25T11:47:35.716Z,99.90
2023-05-25T11:50:38.367Z,99.90
2023-05-25T11:53:21.296Z,99.90
2023-05-25T11:55:53.682Z,99.90
2023-05-25T12:02:07.164Z,99.90
2023-05-25T12:05:11.153Z,99.90
2023-05-25T12:08:07.979Z,99.90
2023-05-25T12:10:54.124Z,99.90
2023-05-25T12:13:34.990Z,99.90
2023-05-25T12:16:56.019Z,99.90
2023-05-25T12:19:34.942Z,99.90
2023-05-25T12:22:07.714Z,99.90
2023-05-25T12:24:37.608Z,99.90
2023-05-25T12:27:25.121Z,99.90
2023-05-25T12:29:55.702Z,99.90
2023-05-25T12:32:27.371Z,99.90
2023-05-25T12:35:08.439Z,99.90
2023-05-25T12:41:30.942Z,99.90
2023-05-25T12:44:00.938Z,99.90
2023-05-25T12:46:34.002Z,99.90
2023-05-25T12:49:06.760Z,99.90
2023-05-25T12:54:53.339Z,99.90
2023-05-25T12:57:49.819Z,99.90
2023-05-25T13:00:45.126Z,99.90
2023-05-25T13:04:54.191Z,99.90
2023-05-25T13:07:48.306Z,99.90
2023-05-25T13:10:25.693Z,99.90
2023-05-25T13:13:25.228Z,99.90
2023-05-25T13:15:54.129Z,99.90
2023-05-25T13:18:31.639Z,99.90
2023-05-25T13:23:48.881Z,99.90
2023-05-25T13:26:35.998Z,99.90
2023-05-25T13:29:10.604Z,99.80
2023-05-25T13:31:43.896Z,99.50
2023-05-25T13:34:23.595Z,99.40
2023-05-25T13:37:07.916Z,99.50
2023-05-25T13:39:55.555Z,99.20
2023-05-25T13:42:30.096Z,99.00
2023-05-25T13:45:04.796Z,98.00
2023-05-25T13:47:33.894Z,98.10
2023-05-25T13:52:51.915Z,98.40
2023-05-25T13:55:24.070Z,98.00
2023-05-25T14:03:39.550Z,97.80
2023-05-25T14:06:18.034Z,98.20
2023-05-25T14:08:59.397Z,98.50
2023-05-25T14:11:30.371Z,98.10
2023-05-25T14:13:59.017Z,97.40
2023-05-25T14:20:27.570Z,97.60
2023-05-25T14:23:38.510Z,97.00
2023-05-25T14:26:16.304Z,97.30
2023-05-25T14:28:45.658Z,97.90
2023-05-25T14:31:18.556Z,98.30
2023-05-25T14:39:51.964Z,98.70
2023-05-25T14:49:25.100Z,98.30
2023-05-25T14:52:11.841Z,99.90
2023-05-25T15:25:27.965Z,99.90
2023-05-25T15:28:15.145Z,99.90
2023-05-25T15:48:13.213Z,99.90
2023-05-25T15:50:51.641Z,99.90
2023-05-25T15:53:23.667Z,99.90
2023-05-25T16:03:36.838Z,99.90
2023-05-25T16:06:16.371Z,99.90
2023-05-25T17:13:29.587Z,99.90
2023-05-25T17:16:08.034Z,99.90
2023-05-25T17:18:48.272Z,99.90
2023-05-25T17:24:38.359Z,99.90
2023-05-25T17:27:09.627Z,99.90
2023-05-25T17:29:47.323Z,99.90
2023-05-25T17:35:16.362Z,99.90
2023-05-25T17:53:02.836Z,99.90
2023-05-25T18:00:05.383Z,99.90
2023-05-25T18:07:56.987Z,99.90
2023-05-25T18:10:56.517Z,99.90
2023-05-25T18:13:54.280Z,99.90
2023-05-25T18:16:26.454Z,99.90
2023-05-25T18:24:21.614Z,99.90
2023-05-25T18:26:51.686Z,99.90
2023-05-25T18:29:33.421Z,99.90
2023-05-25T18:32:11.163Z,99.90
2023-05-25T18:34:48.722Z,99.90
2023-05-25T18:37:19.249Z,99.90
2023-05-25T18:43:34.577Z,99.90
2023-05-25T18:46:25.892Z,99.90
2023-05-25T18:49:00.075Z,99.90
2023-05-25T19:01:43.322Z,99.90
2023-05-25T19:04:47.532Z,99.90
2023-05-25T19:08:57.250Z,99.90
2023-05-25T19:11:35.806Z,99.90
2023-05-25T19:20:05.087Z,99.90
2023-05-25T19:27:23.884Z,99.90
2023-05-25T19:34:43.755Z,99.90
2023-05-25T19:40:51.573Z,99.90
2023-05-25T19:43:22.039Z,99.90
2023-05-25T19:46:04.369Z,99.90
2023-05-25T19:48:43.543Z,99.90
2023-05-25T19:51:45.949Z,99.90
2023-05-25T19:55:22.742Z,99.90
2023-05-25T20:01:10.092Z,99.90
2023-05-25T20:04:12.322Z,99.90
2023-05-25T20:07:18.883Z,99.90
2023-05-25T20:09:53.435Z,99.90
2023-05-25T20:22:57.794Z,99.90
2023-05-25T20:25:28.456Z,99.90
2023-05-25T20:28:25.833Z,99.90
2023-05-25T20:30:57.112Z,99.90
2023-05-25T20:40:17.463Z,99.90
2023-05-25T20:43:09.453Z,99.90
2023-05-25T20:49:36.194Z,99.90
2023-05-25T20:52:30.785Z,99.90
2023-05-25T20:55:24.180Z,99.90
2023-05-25T20:58:10.158Z,99.90
2023-05-25T21:00:54.928Z,99.90
2023-05-25T21:17:44.946Z,99.90
2023-05-25T21:20:21.194Z,99.90
2023-05-25T21:23:02.453Z,99.90
2023-05-25T21:25:32.286Z,99.90
2023-05-25T21:28:02.622Z,99.90
2023-05-25T21:30:49.698Z,99.90
2023-05-25T21:33:23.890Z,99.90
2023-05-25T21:35:52.511Z,99.90
2023-05-25T21:38:26.239Z,99.90
2023-05-25T21:41:00.887Z,99.90
2023-05-25T21:43:29.890Z,99.90
2023-05-25T21:46:00.812Z,99.90
2023-05-25T21:48:39.592Z,99.90
2023-05-25T21:51:19.598Z,99.90
2023-05-25T21:54:20.781Z,99.90
2023-05-25T21:56:49.550Z,99.90
2023-05-25T22:02:18.783Z,99.90
2023-05-25T22:07:32.266Z,99.90
2023-05-25T22:10:12.204Z,99.90
2023-05-25T22:12:40.966Z,99.90
2023-05-25T22:15:21.113Z,99.90
2023-05-25T22:17:55.397Z,99.90
2023-05-25T22:20:26.250Z,99.90
2023-05-25T22:23:12.393Z,99.90
2023-05-25T22:25:50.435Z,99.90
2023-05-25T22:28:19.074Z,99.90
2023-05-25T22:30:52.830Z,99.90
2023-05-25T22:33:29.737Z,99.90
2023-05-25T22:36:03.294Z,99.90
2023-05-25T22:38:32.732Z,99.90
2023-05-25T22:41:02.575Z,99.90
2023-05-25T22:46:45.280Z,99.90
2023-05-25T22:59:04.761Z,99.90
2023-05-25T23:01:33.392Z,99.90
2023-05-25T23:04:34.484Z,99.90
2023-05-25T23:07:03.108Z,99.90
2023-05-25T23:09:59.748Z,99.90
2023-05-25T23:12:32.553Z,99.90
2023-05-25T23:21:34.460Z,99.90
2023-05-25T23:24:09.279Z,99.90
2023-05-25T23:26:52.212Z,99.90
2023-05-25T23:29:24.445Z,99.90
2023-05-25T23:31:52.966Z,99.90
2023-05-25T23:34:26.106Z,99.90
2023-05-25T23:37:00.651Z,99.90
2023-05-25T23:52:15.198Z,99.90
